ENML/MOL METAR and TAF weather

Enter ICAO airport designator
Station Type Date Time Source
ENML METAR 2021/09/20 05:20 UTC NOAA

ENML 200520Z 05004KT 9999 FEW010 BKN085 11/10 Q1021


Station Type Date Time Source
ENML Decoded METAR 2021/09/20 05:20 UTC NOAA

Molde / Aro, Norway (ENML) 62-45N 007-16E 3M
Sep 20, 2021 - 01:20 AM EDT / 2021.09.20 0520 UTC
Wind: from the NE (050 degrees) at 5 MPH (4 KT):0
Visibility: greater than 7 mile(s):0
Sky conditions: mostly cloudy
Temperature: 51 F (11 C)
Dew Point: 50 F (10 C)
Relative Humidity: 93%
Pressure (altimeter): 30.15 in. Hg (1021 hPa)
ob: ENML 200520Z 05004KT 9999 FEW010 BKN085 11/10 Q1021
cycle: 5

Station Type Date Time Source
ENML TAF UTC NOAA

Error!

Example: see airport list